createdAt,value
2023-02-17T00:01:22.169Z,52.13
2023-02-17T00:03:51.820Z,51.27
2023-02-17T00:06:21.818Z,49.67
2023-02-17T00:08:51.664Z,50.87
2023-02-17T00:11:20.477Z,52.50
2023-02-17T00:13:48.638Z,52.13
2023-02-17T00:16:20.683Z,53.87
2023-02-17T00:18:53.265Z,52.53
2023-02-17T00:21:23.823Z,52.90
2023-02-17T00:23:54.028Z,54.90
2023-02-17T00:26:22.789Z,55.93
2023-02-17T00:28:51.807Z,53.17
2023-02-17T00:31:22.047Z,52.20
2023-02-17T00:33:50.558Z,55.67
2023-02-17T00:36:20.727Z,56.43
2023-02-17T00:38:50.174Z,55.53
2023-02-17T00:41:20.570Z,55.83
2023-02-17T00:43:49.750Z,58.37
2023-02-17T00:46:19.435Z,56.07
2023-02-17T00:48:47.966Z,57.87
2023-02-17T00:51:16.679Z,56.37
2023-02-17T00:53:45.027Z,56.37
2023-02-17T00:56:13.725Z,58.13
2023-02-17T00:58:43.867Z,57.20
2023-02-17T01:01:13.062Z,57.67
2023-02-17T01:03:42.403Z,58.13
2023-02-17T01:06:22.740Z,58.17
2023-02-17T01:08:50.838Z,59.43
2023-02-17T01:11:20.038Z,60.40
2023-02-17T01:13:49.522Z,56.17
2023-02-17T01:16:18.973Z,58.27
2023-02-17T01:18:47.080Z,57.17
2023-02-17T01:21:19.392Z,58.87
2023-02-17T01:23:49.905Z,59.77
2023-02-17T01:26:21.279Z,57.23
2023-02-17T01:28:51.811Z,55.80
2023-02-17T01:31:22.309Z,59.20
2023-02-17T01:33:51.110Z,57.50
2023-02-17T01:36:20.915Z,58.70
2023-02-17T01:38:49.070Z,57.80
2023-02-17T01:41:22.277Z,56.37
2023-02-17T01:44:10.581Z,56.53
2023-02-17T01:46:40.337Z,55.17
2023-02-17T01:49:18.908Z,58.27
2023-02-17T01:51:50.969Z,55.80
2023-02-17T01:54:23.532Z,55.20
2023-02-17T01:56:52.659Z,56.37
2023-02-17T01:59:23.435Z,54.43
2023-02-17T02:01:55.955Z,54.63
2023-02-17T02:04:27.043Z,54.03
2023-02-17T02:06:55.580Z,54.23
2023-02-17T02:09:29.285Z,55.67
2023-02-17T02:12:00.366Z,54.57
2023-02-17T02:14:34.838Z,54.67
2023-02-17T02:17:13.831Z,53.70
2023-02-17T02:20:14.702Z,54.87
2023-02-17T02:23:12.648Z,53.37
2023-02-17T02:26:21.484Z,53.93
2023-02-17T02:29:12.629Z,54.57
2023-02-17T02:31:56.948Z,51.87
2023-02-17T02:34:32.613Z,53.33
2023-02-17T02:37:07.812Z,53.03
2023-02-17T02:39:40.800Z,52.57
2023-02-17T02:42:14.185Z,53.60
2023-02-17T02:44:42.649Z,52.43
2023-02-17T02:47:43.849Z,52.10
2023-02-17T02:50:18.326Z,51.87
2023-02-17T02:53:00.209Z,49.87
2023-02-17T02:55:42.219Z,51.77
2023-02-17T02:58:18.613Z,51.43
2023-02-17T03:00:55.428Z,49.73
2023-02-17T03:03:30.612Z,51.50
2023-02-17T03:06:07.728Z,48.70
2023-02-17T03:08:40.722Z,49.30
2023-02-17T03:11:08.961Z,48.43
2023-02-17T03:13:39.691Z,47.00
2023-02-17T03:16:12.209Z,46.63
2023-02-17T03:18:40.411Z,47.07
2023-02-17T03:21:15.684Z,47.07
2023-02-17T03:23:44.392Z,47.20
2023-02-17T03:26:12.489Z,46.23
2023-02-17T03:28:40.728Z,45.83
2023-02-17T03:31:08.986Z,43.40
2023-02-17T03:33:37.066Z,44.97
2023-02-17T03:36:05.838Z,45.37
2023-02-17T03:38:35.573Z,43.53
2023-02-17T03:41:03.714Z,43.97
2023-02-17T03:43:31.726Z,43.63
2023-02-17T03:45:59.846Z,42.83
2023-02-17T03:48:28.058Z,42.10
2023-02-17T03:50:56.133Z,43.67
2023-02-17T03:53:24.162Z,42.87
2023-02-17T03:55:53.552Z,41.17
2023-02-17T03:58:21.666Z,41.63
2023-02-17T04:00:49.672Z,39.47
2023-02-17T04:03:17.713Z,41.67
2023-02-17T04:05:46.446Z,41.67
2023-02-17T04:08:14.579Z,41.27
2023-02-17T04:10:42.631Z,42.70
2023-02-17T04:13:12.067Z,41.60
2023-02-17T04:15:40.150Z,40.40
2023-02-17T04:18:08.207Z,38.43
2023-02-17T04:20:36.246Z,38.73
2023-02-17T04:23:04.288Z,39.47
2023-02-17T04:25:34.993Z,39.23
2023-02-17T04:28:03.272Z,38.63
2023-02-17T04:30:32.900Z,38.00
2023-02-17T04:33:01.562Z,37.47
2023-02-17T04:35:29.893Z,39.47
2023-02-17T04:37:58.039Z,40.87
2023-02-17T04:40:26.098Z,38.80
2023-02-17T04:42:54.169Z,35.80
2023-02-17T04:45:22.357Z,36.10
2023-02-17T04:47:51.777Z,37.33
2023-02-17T04:50:21.026Z,37.13
2023-02-17T04:52:49.406Z,36.90
2023-02-17T04:55:17.469Z,38.33
2023-02-17T04:57:45.494Z,37.47
2023-02-17T05:00:14.419Z,36.10
2023-02-17T05:02:42.443Z,37.57
2023-02-17T05:05:15.295Z,36.53
2023-02-17T05:07:43.939Z,35.97
2023-02-17T05:10:12.977Z,36.77
2023-02-17T05:12:41.116Z,36.77
2023-02-17T05:15:10.068Z,36.07
2023-02-17T05:17:38.458Z,37.03
2023-02-17T05:20:07.933Z,37.13
2023-02-17T05:22:37.651Z,36.57
2023-02-17T05:25:06.430Z,35.43
2023-02-17T05:27:34.873Z,36.83
2023-02-17T05:30:02.979Z,37.70
2023-02-17T05:32:31.241Z,36.97
2023-02-17T05:34:59.290Z,35.80
2023-02-17T05:37:28.374Z,35.97
2023-02-17T05:39:57.841Z,35.77
2023-02-17T05:42:28.898Z,34.70
2023-02-17T05:44:57.294Z,34.80
2023-02-17T05:47:27.622Z,34.17
2023-02-17T05:49:55.856Z,32.53
2023-02-17T05:52:23.919Z,32.33
2023-02-17T05:54:51.945Z,30.63
2023-02-17T05:57:21.604Z,31.90
2023-02-17T05:59:49.641Z,31.27
2023-02-17T06:02:17.780Z,30.80
2023-02-17T06:04:45.945Z,29.13
2023-02-17T06:07:14.055Z,29.33
2023-02-17T06:09:42.148Z,30.57
2023-02-17T06:12:10.186Z,30.27
2023-02-17T06:14:39.585Z,29.60
2023-02-17T06:17:07.751Z,29.30
2023-02-17T06:19:35.762Z,29.97
2023-02-17T06:22:03.806Z,28.20
2023-02-17T06:24:31.978Z,29.73
2023-02-17T06:27:00.035Z,29.80
2023-02-17T06:29:28.829Z,27.93
2023-02-17T06:31:58.351Z,30.37
2023-02-17T06:34:26.454Z,29.37
2023-02-17T06:36:54.597Z,31.03
2023-02-17T06:39:22.732Z,29.67
2023-02-17T06:41:51.361Z,30.07
2023-02-17T06:44:19.499Z,30.20
2023-02-17T06:46:47.572Z,30.43
2023-02-17T06:49:17.089Z,32.30
2023-02-17T06:51:45.176Z,31.77
2023-02-17T06:54:13.227Z,30.30
2023-02-17T06:56:41.326Z,30.33
2023-02-17T06:59:09.421Z,30.13
2023-02-17T07:01:37.647Z,30.33
2023-02-17T07:04:05.871Z,31.53
2023-02-17T07:06:37.686Z,29.80
2023-02-17T07:09:06.559Z,31.53
2023-02-17T07:11:34.802Z,29.80
2023-02-17T07:14:02.901Z,30.67
2023-02-17T07:16:31.104Z,28.53
2023-02-17T07:18:59.151Z,30.37
2023-02-17T07:21:27.296Z,29.40
2023-02-17T07:23:56.706Z,30.47
2023-02-17T07:26:24.757Z,29.53
2023-02-17T07:28:52.817Z,27.67
2023-02-17T07:31:21.006Z,28.93
2023-02-17T07:33:50.193Z,29.10
2023-02-17T07:36:18.780Z,29.03
2023-02-17T07:38:46.807Z,28.13
2023-02-17T07:41:18.115Z,28.60
2023-02-17T07:43:47.188Z,27.53
2023-02-17T07:46:17.580Z,27.77
2023-02-17T07:48:46.530Z,28.00
2023-02-17T07:51:17.071Z,27.87
2023-02-17T07:53:45.159Z,28.13
2023-02-17T07:56:15.434Z,28.87
2023-02-17T07:58:46.480Z,29.10
2023-02-17T08:01:17.490Z,28.27
2023-02-17T08:03:46.544Z,27.53
2023-02-17T08:06:16.601Z,27.90
2023-02-17T08:09:01.754Z,27.60
2023-02-17T08:11:49.590Z,25.40
2023-02-17T08:14:21.504Z,27.63
2023-02-17T08:16:49.687Z,26.30
2023-02-17T08:19:18.031Z,26.30
2023-02-17T08:21:46.473Z,26.43
2023-02-17T08:24:15.478Z,26.17
2023-02-17T08:26:43.580Z,26.33
2023-02-17T08:29:11.822Z,25.43
2023-02-17T08:31:41.382Z,24.73
2023-02-17T08:34:11.977Z,25.33
2023-02-17T08:36:40.538Z,26.17
2023-02-17T08:39:13.024Z,25.63
2023-02-17T08:41:42.352Z,25.70
2023-02-17T08:44:12.742Z,26.10
2023-02-17T08:46:43.301Z,25.80
2023-02-17T08:49:11.853Z,25.23
2023-02-17T08:51:40.104Z,25.73
2023-02-17T08:54:10.392Z,26.00
2023-02-17T08:56:40.040Z,25.93
2023-02-17T08:59:10.302Z,23.97
2023-02-17T09:01:39.047Z,24.77
2023-02-17T09:04:10.335Z,24.40
2023-02-17T09:06:41.049Z,23.20
2023-02-17T09:09:10.902Z,24.03
2023-02-17T09:11:39.248Z,24.43
2023-02-17T09:14:07.914Z,23.57
2023-02-17T09:16:36.393Z,23.47
2023-02-17T09:19:05.442Z,24.37
2023-02-17T09:21:35.051Z,22.80
2023-02-17T09:24:03.363Z,23.57
2023-02-17T09:26:31.467Z,22.37
2023-02-17T09:28:59.513Z,24.03
2023-02-17T09:31:31.308Z,23.37
2023-02-17T09:33:59.867Z,24.03
2023-02-17T09:36:30.136Z,23.00
2023-02-17T09:38:59.835Z,23.57
2023-02-17T09:41:35.819Z,22.93
2023-02-17T09:44:04.014Z,23.47
2023-02-17T09:46:36.152Z,22.80
2023-02-17T09:49:12.510Z,24.47
2023-02-17T09:51:44.946Z,23.50
2023-02-17T09:54:19.351Z,23.50
2023-02-17T09:56:51.924Z,23.67
2023-02-17T09:59:24.849Z,23.87
2023-02-17T10:01:55.176Z,22.90
2023-02-17T10:04:27.849Z,24.10
2023-02-17T10:07:02.865Z,24.00
2023-02-17T10:09:36.716Z,24.00
2023-02-17T10:12:09.739Z,24.20
2023-02-17T10:14:44.570Z,24.07
2023-02-17T10:17:22.030Z,22.70
2023-02-17T10:19:55.467Z,24.17
2023-02-17T10:22:25.661Z,22.97
2023-02-17T10:24:55.185Z,22.17
2023-02-17T10:27:34.890Z,22.90
2023-02-17T10:30:23.188Z,22.33
2023-02-17T10:33:00.512Z,22.90
2023-02-17T10:35:46.480Z,22.47
2023-02-17T10:38:18.806Z,22.07
2023-02-17T10:40:52.450Z,23.00
2023-02-17T10:43:27.094Z,22.07
2023-02-17T10:45:55.935Z,23.17
2023-02-17T10:48:35.865Z,23.50
2023-02-17T10:51:04.596Z,22.10
2023-02-17T10:53:35.530Z,24.07
2023-02-17T10:56:10.877Z,25.13
2023-02-17T10:58:48.172Z,22.17
2023-02-17T11:01:16.181Z,23.57
2023-02-17T11:03:44.336Z,21.90
2023-02-17T11:06:18.838Z,22.90
2023-02-17T11:08:50.813Z,20.07
2023-02-17T11:11:22.540Z,19.50
2023-02-17T11:14:10.757Z,20.70
2023-02-17T11:16:40.946Z,22.37
2023-02-17T11:19:22.770Z,20.03
2023-02-17T11:21:52.944Z,20.50
2023-02-17T11:24:21.822Z,20.90
2023-02-17T11:26:59.874Z,21.27
2023-02-17T11:29:28.647Z,21.10
2023-02-17T11:31:59.566Z,21.33
2023-02-17T11:34:30.361Z,21.27
2023-02-17T11:37:01.795Z,20.63
2023-02-17T11:39:30.550Z,21.47
2023-02-17T11:41:59.970Z,20.53
2023-02-17T11:44:29.522Z,20.17
2023-02-17T11:47:09.584Z,20.50
2023-02-17T11:50:00.766Z,19.93
2023-02-17T11:52:44.888Z,20.50
2023-02-17T11:55:21.958Z,21.07
2023-02-17T11:58:08.802Z,19.60
2023-02-17T12:00:46.322Z,20.70
2023-02-17T12:03:29.821Z,19.77
2023-02-17T12:06:09.595Z,19.30
2023-02-17T12:08:53.233Z,19.00
2023-02-17T12:11:27.890Z,18.20
2023-02-17T12:14:10.872Z,18.37
2023-02-17T12:16:49.236Z,18.87
2023-02-17T12:19:41.417Z,17.77
2023-02-17T12:22:18.868Z,17.47
2023-02-17T12:24:59.375Z,16.53
2023-02-17T12:27:45.057Z,16.33
2023-02-17T12:30:27.779Z,16.77
2023-02-17T12:33:13.509Z,15.43
2023-02-17T12:35:51.148Z,15.70
2023-02-17T12:38:23.245Z,15.30
2023-02-17T12:40:56.864Z,14.73
2023-02-17T12:43:28.694Z,15.07
2023-02-17T12:46:01.251Z,14.37
2023-02-17T12:48:36.946Z,14.23
2023-02-17T12:51:10.589Z,14.87
2023-02-17T12:53:50.271Z,14.23
2023-02-17T12:56:50.652Z,13.50
2023-02-17T12:59:21.886Z,14.50
2023-02-17T13:02:00.655Z,13.13
2023-02-17T13:04:31.102Z,13.37
2023-02-17T13:07:21.327Z,12.97
2023-02-17T13:09:51.335Z,13.30
2023-02-17T13:12:34.231Z,13.80
2023-02-17T13:15:05.137Z,13.30
2023-02-17T13:17:38.340Z,13.30
2023-02-17T13:20:29.062Z,13.37
2023-02-17T13:23:13.659Z,12.60
2023-02-17T13:25:42.262Z,12.67
2023-02-17T13:28:37.165Z,12.37
2023-02-17T13:31:26.971Z,11.80
2023-02-17T13:33:58.411Z,13.33
2023-02-17T13:36:37.017Z,12.53
2023-02-17T13:39:08.570Z,11.87
2023-02-17T13:41:47.858Z,12.47
2023-02-17T13:44:28.457Z,11.97
2023-02-17T13:46:59.975Z,11.97
2023-02-17T13:49:34.038Z,12.57
2023-02-17T13:52:10.369Z,11.63
2023-02-17T13:54:38.591Z,11.90
2023-02-17T13:57:06.590Z,11.70
2023-02-17T13:59:37.238Z,12.57
2023-02-17T14:02:05.466Z,12.30
2023-02-17T14:04:35.053Z,12.90
2023-02-17T14:07:06.152Z,12.17
2023-02-17T14:09:36.163Z,11.57
2023-02-17T14:12:07.850Z,12.07
2023-02-17T14:14:38.500Z,12.93
2023-02-17T14:17:09.233Z,12.23
2023-02-17T14:19:49.389Z,12.80
2023-02-17T14:22:28.760Z,12.17
2023-02-17T14:25:02.905Z,11.40
2023-02-17T14:27:42.686Z,11.97
2023-02-17T14:30:15.402Z,11.80
2023-02-17T14:32:43.685Z,11.20
2023-02-17T14:35:24.806Z,12.60
2023-02-17T14:37:52.927Z,12.03
2023-02-17T14:40:24.387Z,11.83
2023-02-17T14:42:52.736Z,11.30
2023-02-17T14:45:20.858Z,11.10
2023-02-17T14:47:48.996Z,11.07
2023-02-17T14:50:17.638Z,10.47
2023-02-17T14:52:49.127Z,11.67
2023-02-17T14:55:26.038Z,10.97
2023-02-17T14:57:54.741Z,11.43
2023-02-17T15:00:23.155Z,10.60
2023-02-17T15:02:51.542Z,11.33
2023-02-17T15:05:20.250Z,11.30
2023-02-17T15:07:49.823Z,11.13
2023-02-17T15:10:21.891Z,10.73
2023-02-17T15:12:49.973Z,11.03
2023-02-17T15:15:19.322Z,11.77
2023-02-17T15:17:47.942Z,11.80
2023-02-17T15:20:17.896Z,12.67
2023-02-17T15:22:46.110Z,12.77
2023-02-17T15:25:19.242Z,12.90
2023-02-17T15:27:48.307Z,13.10
2023-02-17T15:30:17.769Z,14.00
2023-02-17T15:32:46.752Z,15.10
2023-02-17T15:35:20.725Z,15.40
2023-02-17T15:37:49.316Z,16.43
2023-02-17T15:40:20.417Z,16.03
2023-02-17T15:42:54.657Z,18.43
2023-02-17T15:45:23.566Z,19.47
2023-02-17T15:47:53.803Z,19.03
2023-02-17T15:50:23.888Z,19.40
2023-02-17T15:52:52.423Z,20.43
2023-02-17T15:55:23.658Z,21.13
2023-02-17T15:57:55.036Z,21.00
2023-02-17T16:00:25.139Z,21.07
2023-02-17T16:02:53.613Z,20.83
2023-02-17T16:05:24.189Z,21.90
2023-02-17T16:07:52.642Z,21.37
2023-02-17T16:10:24.329Z,21.50
2023-02-17T16:12:53.300Z,22.13
2023-02-17T16:15:24.086Z,22.27
2023-02-17T16:17:52.523Z,21.73
2023-02-17T16:20:22.263Z,22.13
2023-02-17T16:22:50.320Z,22.07
2023-02-17T16:25:19.819Z,22.03
2023-02-17T16:27:51.678Z,21.73
2023-02-17T16:30:22.519Z,21.10
2023-02-17T16:32:52.502Z,21.43
2023-02-17T16:35:22.849Z,21.07
2023-02-17T16:37:55.347Z,20.43
2023-02-17T16:40:26.269Z,20.73
2023-02-17T16:42:56.252Z,20.40
2023-02-17T16:45:26.898Z,20.40
2023-02-17T16:47:57.399Z,20.40
2023-02-17T16:50:28.201Z,20.00
2023-02-17T16:52:58.826Z,19.50
2023-02-17T16:55:29.595Z,19.70
2023-02-17T16:57:59.759Z,19.57
2023-02-17T17:00:31.460Z,20.03
2023-02-17T17:03:00.260Z,20.00
2023-02-17T17:05:31.126Z,20.67
2023-02-17T17:07:59.176Z,20.40
2023-02-17T17:10:30.720Z,20.27
2023-02-17T17:13:00.835Z,20.77
2023-02-17T17:15:29.495Z,20.47
2023-02-17T17:17:59.869Z,20.43
2023-02-17T17:20:32.017Z,20.60
2023-02-17T17:23:00.864Z,21.00
2023-02-17T17:25:29.979Z,20.53
2023-02-17T17:27:58.504Z,20.30
2023-02-17T17:30:31.469Z,20.40
2023-02-17T17:33:00.154Z,20.57
2023-02-17T17:35:29.276Z,19.90
2023-02-17T17:37:58.790Z,20.30
2023-02-17T17:40:29.112Z,19.43
2023-02-17T17:42:57.202Z,20.67
2023-02-17T17:45:27.256Z,19.13
2023-02-17T17:47:55.630Z,18.73
2023-02-17T17:50:25.377Z,18.30
2023-02-17T17:52:54.001Z,18.60
2023-02-17T17:55:22.160Z,18.13
2023-02-17T17:57:50.204Z,18.03
2023-02-17T18:00:19.795Z,17.80
2023-02-17T18:02:49.239Z,17.63
2023-02-17T18:05:17.410Z,17.00
2023-02-17T18:07:47.985Z,17.00
2023-02-17T18:10:17.743Z,16.77
2023-02-17T18:12:47.733Z,16.47
2023-02-17T18:15:16.918Z,17.20
2023-02-17T18:17:46.658Z,17.40
2023-02-17T18:20:16.394Z,16.90
2023-02-17T18:22:44.871Z,17.67
2023-02-17T18:25:13.328Z,17.20
2023-02-17T18:27:42.512Z,16.53
2023-02-17T18:30:12.115Z,16.90
2023-02-17T18:32:40.289Z,17.33
2023-02-17T18:35:09.056Z,17.50
2023-02-17T18:37:40.317Z,18.40
2023-02-17T18:40:12.526Z,18.70
2023-02-17T18:42:40.754Z,18.37
2023-02-17T18:45:10.377Z,18.57
2023-02-17T18:47:38.542Z,20.50
2023-02-17T18:50:08.500Z,21.17
2023-02-17T18:52:39.570Z,22.83
2023-02-17T18:55:08.435Z,24.20
2023-02-17T18:57:36.971Z,24.83
2023-02-17T19:00:05.988Z,26.80
2023-02-17T19:02:36.779Z,28.27
2023-02-17T19:05:05.676Z,29.07
2023-02-17T19:07:34.543Z,29.40
2023-02-17T19:10:04.552Z,30.80
2023-02-17T19:12:34.230Z,30.97
2023-02-17T19:15:02.612Z,29.63
2023-02-17T19:17:30.756Z,30.27
2023-02-17T19:19:58.805Z,29.53
2023-02-17T19:22:26.916Z,29.33
2023-02-17T19:24:55.963Z,27.63
2023-02-17T19:27:25.421Z,28.27
2023-02-17T19:29:53.522Z,26.67
2023-02-17T19:32:21.920Z,26.80
2023-02-17T19:34:50.297Z,25.60
2023-02-17T19:37:18.359Z,24.10
2023-02-17T19:39:46.673Z,23.90
2023-02-17T19:42:14.733Z,23.93
2023-02-17T19:44:44.218Z,22.33
2023-02-17T19:47:12.300Z,22.23
2023-02-17T19:49:40.431Z,23.10
2023-02-17T19:52:09.129Z,24.13
2023-02-17T19:54:37.425Z,24.70
2023-02-17T19:57:05.665Z,26.23
2023-02-17T19:59:34.626Z,26.93
2023-02-17T20:02:04.159Z,26.50
2023-02-17T20:04:32.218Z,27.40
2023-02-17T20:07:00.245Z,29.37
2023-02-17T20:09:28.303Z,29.53
2023-02-17T20:11:56.500Z,31.30
2023-02-17T20:14:24.805Z,33.43
2023-02-17T20:16:55.687Z,35.77
2023-02-17T20:19:25.155Z,38.23
2023-02-17T20:21:53.248Z,39.37
2023-02-17T20:24:21.421Z,40.67
2023-02-17T20:26:53.692Z,42.80
2023-02-17T20:29:21.938Z,44.23
2023-02-17T20:31:50.283Z,45.43
2023-02-17T20:34:29.804Z,46.00
2023-02-17T20:36:58.286Z,47.73
2023-02-17T20:39:26.948Z,47.87
2023-02-17T20:41:55.576Z,48.57
2023-02-17T20:44:27.709Z,48.77
2023-02-17T20:46:57.069Z,49.33
2023-02-17T20:49:25.658Z,49.37
2023-02-17T20:51:55.337Z,49.13
2023-02-17T20:54:25.520Z,49.00
2023-02-17T20:56:53.917Z,48.73
2023-02-17T20:59:22.094Z,47.83
2023-02-17T21:01:50.665Z,47.37
2023-02-17T21:04:18.812Z,47.53
2023-02-17T21:06:47.537Z,46.50
2023-02-17T21:09:19.709Z,46.03
2023-02-17T21:11:48.157Z,45.53
2023-02-17T21:14:16.263Z,45.23
2023-02-17T21:16:44.979Z,43.90
2023-02-17T21:19:13.241Z,43.83
2023-02-17T21:21:41.937Z,42.57
2023-02-17T21:24:10.008Z,41.33
2023-02-17T21:26:40.099Z,40.80
2023-02-17T21:29:08.251Z,39.63
2023-02-17T21:31:37.130Z,38.77
2023-02-17T21:34:06.019Z,37.47
2023-02-17T21:36:34.171Z,37.23
2023-02-17T21:39:03.825Z,35.33
2023-02-17T21:41:32.678Z,34.67
2023-02-17T21:44:19.938Z,33.93
2023-02-17T21:46:48.056Z,33.07
2023-02-17T21:49:16.143Z,31.40
2023-02-17T21:51:44.951Z,31.23
2023-02-17T21:54:13.760Z,30.73
2023-02-17T21:56:41.862Z,30.40
2023-02-17T21:59:11.356Z,29.33
2023-02-17T22:01:39.395Z,28.47
2023-02-17T22:04:08.201Z,28.00
2023-02-17T22:06:38.894Z,28.30
2023-02-17T22:09:08.772Z,28.27
2023-02-17T22:11:40.013Z,27.73
2023-02-17T22:14:11.112Z,27.33
2023-02-17T22:16:41.356Z,27.43
2023-02-17T22:19:13.776Z,26.93
2023-02-17T22:21:43.527Z,27.57
2023-02-17T22:24:12.017Z,27.67
2023-02-17T22:26:40.068Z,27.90
2023-02-17T22:29:08.227Z,28.23
2023-02-17T22:31:36.681Z,28.40
2023-02-17T22:34:10.106Z,27.93
2023-02-17T22:36:38.790Z,27.77
2023-02-17T22:39:09.013Z,28.30
2023-02-17T22:41:38.874Z,29.90
2023-02-17T22:44:07.236Z,31.13
2023-02-17T22:46:35.589Z,31.23
2023-02-17T22:49:05.095Z,32.97
2023-02-17T22:51:36.455Z,34.17
2023-02-17T22:54:05.804Z,33.80
2023-02-17T22:56:34.720Z,34.33
2023-02-17T22:59:04.409Z,34.00
2023-02-17T23:01:33.961Z,34.27
2023-02-17T23:04:02.339Z,33.70
2023-02-17T23:06:33.789Z,31.73
2023-02-17T23:09:02.651Z,30.80
2023-02-17T23:11:52.463Z,29.27
2023-02-17T23:14:23.861Z,27.40
2023-02-17T23:16:53.083Z,25.90
2023-02-17T23:19:22.871Z,24.73
2023-02-17T23:21:54.117Z,23.90
2023-02-17T23:24:23.630Z,22.20
2023-02-17T23:26:52.513Z,21.70
2023-02-17T23:29:20.969Z,20.30
2023-02-17T23:31:49.165Z,19.10
2023-02-17T23:34:18.025Z,18.97
2023-02-17T23:36:47.122Z,17.87
2023-02-17T23:39:17.396Z,17.43
2023-02-17T23:41:45.978Z,17.17
2023-02-17T23:44:15.290Z,17.17
2023-02-17T23:46:44.886Z,17.30
2023-02-17T23:49:15.471Z,17.60
2023-02-17T23:51:44.524Z,17.97
2023-02-17T23:54:12.581Z,18.77
2023-02-17T23:56:42.061Z,20.10
2023-02-17T23:59:11.736Z,20.80
